Time;durP1;ratioP1;P1;durP2;ratioP2;P2;SDS_P1;SDS_P2;PMS_P1;PMS_P2;Temp;Humidity;BMP_temperature;BMP_pressure;BME280_temperature;BME280_humidity;BME280_pressure;Samples;Min_cycle;Max_cycle;Signal;HPM_P1;HPM_P2
2023/12/18 00:02:21;;;;;;;4.63;3.65;;;5.50;99.90;;;;;;5092319;28;20265;-88
2023/12/18 00:04:49;;;;;;;4.35;3.92;;;5.40;99.90;;;;;;5094222;28;20202;-88
2023/12/18 00:07:16;;;;;;;4.40;4.00;;;5.20;99.90;;;;;;5095440;28;20225;-88
2023/12/18 00:09:43;;;;;;;3.80;3.50;;;5.50;99.90;;;;;;5090041;28;20262;-88
2023/12/18 00:12:11;;;;;;;6.20;4.57;;;5.50;99.90;;;;;;5093342;28;20218;-88
2023/12/18 00:14:38;;;;;;;4.10;3.80;;;5.40;99.90;;;;;;5094587;28;20202;-88
2023/12/18 00:17:05;;;;;;;5.70;4.35;;;5.40;99.90;;;;;;5094284;28;20212;-88
2023/12/18 00:19:32;;;;;;;5.25;4.50;;;5.40;99.90;;;;;;5086426;28;20702;-90
2023/12/18 00:22:00;;;;;;;7.68;4.20;;;5.30;99.90;;;;;;5082659;28;20225;-89
2023/12/18 00:24:27;;;;;;;8.27;7.40;;;5.60;1.00;;;;;;5084235;28;20232;-88
2023/12/18 00:26:54;;;;;;;8.00;6.93;;;5.40;99.90;;;;;;5091145;28;20238;-88
2023/12/18 00:29:20;;;;;;;10.10;9.13;;;5.40;1.00;;;;;;5088434;28;20216;-89
2023/12/18 00:31:48;;;;;;;13.00;11.68;;;5.40;1.00;;;;;;5090170;28;20287;-88
2023/12/18 00:34:15;;;;;;;20.58;15.77;;;5.40;1.00;;;;;;5093400;28;20202;-90
2023/12/18 00:36:43;;;;;;;16.83;14.50;;;5.40;1.00;;;;;;5095964;28;20273;-89
2023/12/18 00:39:11;;;;;;;16.48;13.73;;;5.40;1.00;;;;;;5096648;28;20197;-88
2023/12/18 00:41:38;;;;;;;13.52;10.75;;;5.30;1.00;;;;;;5096506;28;20218;-88
2023/12/18 00:44:05;;;;;;;12.40;9.35;;;5.30;1.00;;;;;;5097134;28;20209;-88
2023/12/18 00:46:32;;;;;;;11.20;7.53;;;5.30;1.00;;;;;;5099285;28;20198;-87
2023/12/18 00:48:59;;;;;;;8.38;7.00;;;5.50;1.00;;;;;;5098101;28;20226;-88
2023/12/18 00:51:26;;;;;;;7.00;5.28;;;5.60;1.00;;;;;;5092537;28;20226;-90
2023/12/18 00:53:52;;;;;;;6.60;5.90;;;5.30;1.00;;;;;;5094594;28;20221;-88
2023/12/18 00:56:21;;;;;;;5.72;5.05;;;5.30;1.00;;;;;;5093348;28;20309;-89
2023/12/18 00:58:48;;;;;;;5.20;4.70;;;5.20;1.00;;;;;;5094334;28;20217;-89
2023/12/18 01:01:15;;;;;;;5.50;5.00;;;5.20;1.00;;;;;;5084734;28;20277;-88
2023/12/18 01:03:41;;;;;;;5.65;5.03;;;5.10;1.00;;;;;;5084452;28;20265;-88
2023/12/18 01:06:08;;;;;;;5.65;5.13;;;5.10;1.00;;;;;;5099500;28;20206;-89
2023/12/18 01:08:35;;;;;;;5.57;4.93;;;;;;;;;;5098714;28;20183;-88
2023/12/18 01:11:03;;;;;;;6.55;4.90;;;5.20;1.00;;;;;;5097747;28;20243;-90
2023/12/18 01:13:31;;;;;;;5.50;4.53;;;5.10;1.00;;;;;;5078820;28;20616;-89
2023/12/18 01:15:58;;;;;;;6.38;4.50;;;5.10;1.00;;;;;;5078958;28;20236;-88
2023/12/18 01:18:25;;;;;;;5.32;4.82;;;5.10;1.00;;;;;;5077990;28;20233;-89
2023/12/18 01:20:52;;;;;;;5.78;5.20;;;5.20;1.00;;;;;;5078199;28;20233;-88
2023/12/18 01:23:19;;;;;;;5.35;4.80;;;5.20;1.00;;;;;;5078325;28;20293;-89
2023/12/18 01:25:46;;;;;;;9.13;4.70;;;5.20;1.00;;;;;;5078622;28;20278;-88
2023/12/18 01:28:13;;;;;;;4.85;4.38;;;5.10;1.00;;;;;;5093011;28;20206;-87
2023/12/18 01:30:41;;;;;;;6.53;5.13;;;5.00;1.00;;;;;;5097892;28;20222;-89
2023/12/18 01:33:08;;;;;;;6.13;4.40;;;6.40;1.00;;;;;;5086417;28;20233;-89
2023/12/18 01:35:35;;;;;;;5.22;4.47;;;5.10;1.00;;;;;;5093112;28;20206;-88
2023/12/18 01:38:02;;;;;;;5.28;4.78;;;6.00;1.00;;;;;;5084739;28;20262;-87
2023/12/18 01:40:29;;;;;;;8.38;5.13;;;5.10;1.00;;;;;;5096979;28;20210;-89
2023/12/18 01:42:55;;;;;;;5.72;5.13;;;5.10;1.00;;;;;;5080410;28;20199;-89
2023/12/18 01:45:22;;;;;;;7.53;5.72;;;5.10;1.00;;;;;;5078381;28;20678;-88
2023/12/18 01:47:51;;;;;;;6.70;5.05;;;5.10;1.00;;;;;;5079073;28;20256;-88
2023/12/18 01:50:18;;;;;;;4.78;4.38;;;5.00;2.50;;;;;;5087169;28;20276;-90
2023/12/18 01:52:45;;;;;;;5.70;4.20;;;5.00;1.00;;;;;;5092764;28;20252;-89
2023/12/18 01:55:14;;;;;;;5.80;4.70;;;5.00;1.00;;;;;;5084783;28;20299;-89
2023/12/18 01:57:41;;;;;;;5.25;4.75;;;5.00;1.00;;;;;;5078548;28;20638;-89
2023/12/18 02:00:10;;;;;;;5.80;5.10;;;4.90;1.00;;;;;;5077150;28;20250;-88
2023/12/18 02:02:37;;;;;;;6.65;4.70;;;5.00;1.00;;;;;;5077636;28;20198;-88
2023/12/18 02:05:05;;;;;;;6.93;4.90;;;5.00;1.00;;;;;;5078735;28;20587;-89
2023/12/18 02:07:35;;;;;;;6.68;4.85;;;5.00;1.00;;;;;;5083009;28;20233;-89
2023/12/18 02:10:03;;;;;;;8.68;5.28;;;5.00;99.90;;;;;;5088187;28;20194;-90
2023/12/18 02:12:30;;;;;;;8.63;5.05;;;5.10;99.90;;;;;;5086803;28;20276;-89
2023/12/18 02:14:58;;;;;;;6.13;5.30;;;5.00;10.60;;;;;;5093780;28;20274;-88
2023/12/18 02:17:24;;;;;;;5.03;4.38;;;5.10;12.80;;;;;;5085678;28;20198;-89
2023/12/18 02:20:04;;;;;;;12.50;5.57;;;5.10;29.00;;;;;;5079692;28;20207;-87
2023/12/18 02:22:36;;;;;;;8.50;5.45;;;5.20;57.50;;;;;;5077636;28;20182;-89
2023/12/18 02:25:03;;;;;;;5.88;4.43;;;5.10;95.80;;;;;;5085297;28;20214;-89
2023/12/18 02:27:30;;;;;;;5.82;5.05;;;5.20;1.00;;;;;;5083401;28;20209;-89
2023/12/18 02:29:57;;;;;;;6.68;4.97;;;5.60;99.90;;;;;;5079003;28;20202;-89
2023/12/18 02:32:24;;;;;;;5.00;4.50;;;5.40;99.90;;;;;;5081257;28;20214;-89
2023/12/18 02:34:51;;;;;;;6.90;5.28;;;5.40;1.00;;;;;;5078267;28;20203;-88
2023/12/18 02:37:18;;;;;;;5.35;4.85;;;5.40;1.00;;;;;;5077851;28;20606;-89
2023/12/18 02:39:46;;;;;;;6.68;5.95;;;5.70;36.60;;;;;;5077278;28;20678;-89
2023/12/18 02:42:13;;;;;;;6.47;5.57;;;5.50;1.00;;;;;;5077571;28;20325;-89
2023/12/18 02:44:40;;;;;;;5.68;5.15;;;5.50;1.00;;;;;;5079180;28;20218;-89
2023/12/18 02:47:07;;;;;;;6.55;5.05;;;5.60;1.00;;;;;;5080245;28;20300;-89
2023/12/18 02:49:33;;;;;;;6.57;5.22;;;5.60;47.70;;;;;;5083975;28;20212;-89
2023/12/18 02:52:01;;;;;;;7.93;6.05;;;;;;;;;;5084946;28;20218;-90
2023/12/18 02:54:27;;;;;;;6.15;5.00;;;5.70;1.00;;;;;;5081555;28;20210;-90
2023/12/18 02:56:55;;;;;;;5.38;4.32;;;5.70;1.00;;;;;;5080180;28;20266;-89
2023/12/18 02:59:22;;;;;;;5.43;4.93;;;5.80;1.00;;;;;;5083304;28;20209;-89
2023/12/18 03:01:49;;;;;;;5.45;4.60;;;6.10;1.00;;;;;;5078536;28;20289;-88
2023/12/18 03:04:18;;;;;;;6.03;5.20;;;6.00;54.10;;;;;;5076308;28;20706;-88
2023/12/18 03:06:46;;;;;;;8.88;6.00;;;5.90;1.00;;;;;;5075790;28;20572;-88
2023/12/18 03:09:13;;;;;;;8.63;6.22;;;6.00;1.00;;;;;;5076180;28;20198;-89
2023/12/18 03:11:40;;;;;;;5.75;5.05;;;6.00;1.00;;;;;;5076063;28;20229;-89
2023/12/18 03:14:09;;;;;;;7.05;6.35;;;6.10;1.00;;;;;;5077325;28;20289;-88
2023/12/18 03:16:36;;;;;;;9.68;6.70;;;6.10;1.00;;;;;;5080409;28;20285;-88
2023/12/18 03:19:02;;;;;;;10.50;5.88;;;6.20;1.00;;;;;;5080580;28;20206;-88
2023/12/18 03:21:29;;;;;;;14.40;5.93;;;6.50;1.00;;;;;;5080020;28;20226;-88
2023/12/18 03:23:56;;;;;;;9.48;6.28;;;6.20;1.00;;;;;;5079701;28;20202;-88
2023/12/18 03:26:23;;;;;;;8.68;5.70;;;6.60;1.00;;;;;;5080203;28;20233;-89
2023/12/18 03:28:50;;;;;;;9.48;6.57;;;6.30;1.00;;;;;;5080488;28;20205;-89
2023/12/18 03:31:18;;;;;;;7.43;5.95;;;6.40;1.00;;;;;;5084161;28;20316;-88
2023/12/18 03:33:45;;;;;;;9.73;6.65;;;6.40;1.00;;;;;;5086877;28;20721;-88
2023/12/18 03:36:12;;;;;;;10.90;8.70;;;6.50;1.00;;;;;;5080776;28;20203;-88
2023/12/18 03:38:39;;;;;;;11.05;7.35;;;6.60;1.00;;;;;;5086729;28;20202;-88
2023/12/18 03:41:06;;;;;;;10.52;8.00;;;6.60;1.00;;;;;;5083985;28;20713;-88
2023/12/18 03:43:33;;;;;;;8.40;7.15;;;6.80;1.00;;;;;;5079545;28;20206;-89
2023/12/18 03:45:59;;;;;;;12.45;8.65;;;6.80;1.00;;;;;;5079858;28;20229;-88
2023/12/18 03:48:28;;;;;;;12.27;8.57;;;6.80;1.00;;;;;;5079416;28;20636;-88
2023/12/18 03:50:55;;;;;;;10.95;7.30;;;6.80;1.00;;;;;;5079436;28;20309;-89
2023/12/18 03:53:21;;;;;;;15.65;10.38;;;7.10;1.00;;;;;;5079417;28;20309;-89
2023/12/18 03:55:49;;;;;;;19.15;12.27;;;7.10;1.00;;;;;;5079471;28;20206;-88
2023/12/18 03:58:16;;;;;;;15.33;9.60;;;7.20;99.90;;;;;;5087114;28;20209;-88
2023/12/18 04:00:42;;;;;;;19.17;10.90;;;7.40;99.90;;;;;;5084776;28;20547;-87
2023/12/18 04:03:09;;;;;;;17.77;10.85;;;7.30;99.90;;;;;;5082010;28;20591;-88
2023/12/18 04:05:37;;;;;;;18.33;11.67;;;7.10;99.90;;;;;;5080238;28;20198;-88
2023/12/18 04:08:05;;;;;;;15.00;11.57;;;7.30;99.90;;;;;;5085692;28;20980;-88
2023/12/18 04:10:32;;;;;;;13.73;11.32;;;7.20;99.90;;;;;;5080320;28;20226;-88
2023/12/18 04:12:59;;;;;;;15.05;11.57;;;;;;;;;;5081470;28;20225;-88
2023/12/18 04:15:26;;;;;;;13.60;10.27;;;7.20;99.90;;;;;;5082517;28;20713;-89
2023/12/18 04:17:55;;;;;;;14.52;11.82;;;7.20;99.90;;;;;;5087604;28;20213;-88
2023/12/18 04:20:21;;;;;;;18.05;11.52;;;7.10;99.90;;;;;;5085869;28;20366;-88
2023/12/18 04:22:50;;;;;;;14.50;10.70;;;7.20;99.90;;;;;;5090828;28;20198;-88
2023/12/18 04:25:17;;;;;;;18.85;11.00;;;7.20;99.90;;;;;;5086765;28;20290;-88
2023/12/18 04:27:44;;;;;;;21.48;10.43;;;7.50;99.90;;;;;;5096958;28;20205;-87
2023/12/18 04:30:12;;;;;;;14.05;10.18;;;7.20;86.20;;;;;;5098903;28;20242;-87
2023/12/18 04:32:39;;;;;;;17.40;10.13;;;7.20;94.10;;;;;;5084577;28;20229;-88
2023/12/18 04:35:06;;;;;;;13.85;10.35;;;7.10;99.90;;;;;;5081951;28;20639;-88
2023/12/18 04:37:33;;;;;;;15.13;12.77;;;7.40;99.90;;;;;;5080482;28;20202;-88
2023/12/18 04:40:03;;;;;;;15.60;10.32;;;7.40;99.90;;;;;;5081302;28;20817;-88
2023/12/18 04:42:30;;;;;;;16.80;12.07;;;8.30;99.90;;;;;;5080535;28;20225;-88
2023/12/18 04:44:58;;;;;;;13.65;10.95;;;7.10;99.90;;;;;;5081329;28;20242;-87
2023/12/18 04:47:25;;;;;;;17.30;11.23;;;7.70;99.90;;;;;;5078575;28;20225;-88
2023/12/18 04:49:52;;;;;;;17.40;10.75;;;6.80;99.90;;;;;;5078108;28;21003;-87
2023/12/18 04:52:19;;;;;;;13.90;11.30;;;7.10;99.90;;;;;;5078307;28;20210;-88
2023/12/18 04:54:46;;;;;;;14.82;10.68;;;8.00;99.90;;;;;;5090750;28;20532;-88
2023/12/18 04:57:14;;;;;;;14.73;10.63;;;7.10;99.90;;;;;;5078826;28;20206;-88
2023/12/18 04:59:41;;;;;;;15.88;10.25;;;7.10;99.90;;;;;;5090722;28;20250;-88
2023/12/18 05:02:08;;;;;;;17.83;11.43;;;7.10;99.90;;;;;;5085190;28;20226;-89
2023/12/18 05:04:34;;;;;;;11.63;10.40;;;7.10;99.90;;;;;;5079388;28;20449;-89
2023/12/18 05:07:01;;;;;;;15.52;11.88;;;7.00;99.90;;;;;;5078774;28;20215;-89
2023/12/18 05:09:28;;;;;;;16.83;11.25;;;7.00;99.90;;;;;;5078990;28;20215;-88
2023/12/18 05:11:55;;;;;;;14.48;11.10;;;;;;;;;;5093794;28;20221;-89
2023/12/18 05:14:23;;;;;;;17.30;11.57;;;7.10;99.90;;;;;;5097048;28;20262;-88
2023/12/18 05:16:50;;;;;;;16.23;10.85;;;7.10;32.90;;;;;;5096653;28;20240;-88
2023/12/18 05:19:17;;;;;;;15.52;12.27;;;7.20;40.80;;;;;;5096570;28;20209;-88
2023/12/18 05:21:44;;;;;;;16.20;12.60;;;7.10;3.60;;;;;;5096251;28;20248;-88
2023/12/18 05:24:13;;;;;;;16.77;12.98;;;7.00;13.20;;;;;;5093152;28;20195;-88
2023/12/18 05:26:40;;;;;;;15.10;11.52;;;7.00;1.00;;;;;;5097138;28;20198;-88
2023/12/18 05:29:07;;;;;;;16.98;12.65;;;7.00;1.00;;;;;;5096706;28;20234;-87
2023/12/18 05:31:35;;;;;;;18.55;11.20;;;7.00;1.00;;;;;;5098157;28;20233;-87
2023/12/18 05:34:02;;;;;;;22.23;11.95;;;7.30;1.00;;;;;;5098815;28;20225;-87
2023/12/18 05:36:30;;;;;;;15.98;11.50;;;7.10;1.00;;;;;;5099118;28;20186;-86
2023/12/18 05:38:57;;;;;;;15.57;10.60;;;7.20;1.00;;;;;;5098423;28;20195;-86
2023/12/18 05:41:23;;;;;;;18.85;13.40;;;7.20;1.00;;;;;;5091461;28;20464;-88
2023/12/18 05:43:51;;;;;;;18.83;12.80;;;;;;;;;;5089451;28;20209;-89
2023/12/18 05:46:17;;;;;;;15.00;12.18;;;7.20;99.90;;;;;;5080182;28;20266;-89
2023/12/18 05:48:46;;;;;;;13.98;12.10;;;7.20;1.00;;;;;;5079147;28;20291;-89
2023/12/18 05:51:20;;;;;;;18.23;12.60;;;7.20;1.00;;;;;;5079016;28;20238;-89
2023/12/18 05:53:46;;;;;;;19.00;13.30;;;7.20;1.00;;;;;;5078861;28;20488;-89
2023/12/18 05:56:13;;;;;;;13.07;11.70;;;7.10;1.00;;;;;;5080101;28;20956;-89
2023/12/18 05:58:40;;;;;;;13.38;11.88;;;7.20;1.00;;;;;;5079425;28;20234;-89
2023/12/18 06:01:08;;;;;;;18.27;13.40;;;;;;;;;;5079184;28;20312;-89
2023/12/18 06:03:35;;;;;;;15.20;11.93;;;7.30;1.00;;;;;;5079608;28;20286;-89
2023/12/18 06:06:04;;;;;;;16.63;12.17;;;7.20;99.90;;;;;;5083419;28;20224;-89
2023/12/18 06:08:31;;;;;;;21.05;13.13;;;;;;;;;;5079561;28;20476;-89
2023/12/18 06:10:58;;;;;;;19.23;13.77;;;;;;;;;;5079342;28;20280;-89
2023/12/18 06:13:25;;;;;;;20.17;11.82;;;;;;;;;;5079673;28;20519;-89
2023/12/18 06:15:52;;;;;;;17.20;12.20;;;;;;;;;;5084523;28;20265;-90
2023/12/18 06:18:19;;;;;;;17.23;11.48;;;7.10;99.90;;;;;;5097621;28;20444;-90
2023/12/18 06:20:46;;;;;;;18.13;12.50;;;7.20;99.90;;;;;;5097896;28;20230;-89
2023/12/18 06:23:14;;;;;;;15.98;12.20;;;7.20;99.90;;;;;;5091230;28;20440;-89
2023/12/18 06:25:41;;;;;;;18.60;11.40;;;7.00;99.90;;;;;;5086235;28;20248;-88
2023/12/18 06:28:08;;;;;;;18.83;10.82;;;;;;;;;;5088290;28;20199;-89
2023/12/18 06:30:35;;;;;;;15.43;12.07;;;7.20;99.90;;;;;;5090223;28;20301;-89
2023/12/18 06:33:02;;;;;;;17.60;12.98;;;8.60;99.90;;;;;;5084364;28;20249;-89
2023/12/18 06:35:29;;;;;;;15.45;11.10;;;7.20;99.90;;;;;;5086342;28;20203;-88
2023/12/18 06:37:56;;;;;;;14.13;11.73;;;7.20;99.90;;;;;;5082130;28;20202;-89
2023/12/18 06:40:24;;;;;;;14.73;11.57;;;7.10;99.90;;;;;;5095784;28;20443;-89
2023/12/18 06:42:50;;;;;;;16.40;11.80;;;7.10;99.90;;;;;;5096587;28;20454;-89
2023/12/18 06:45:17;;;;;;;23.42;13.40;;;6.80;1.00;;;;;;5085008;28;21028;-89
2023/12/18 06:47:44;;;;;;;19.67;14.50;;;7.10;99.90;;;;;;5084002;28;20240;-89
2023/12/18 06:50:11;;;;;;;23.97;11.30;;;7.10;99.90;;;;;;5086282;28;20217;-90
2023/12/18 06:52:38;;;;;;;14.70;11.77;;;7.20;99.90;;;;;;5082467;28;20448;-90
2023/12/18 06:55:06;;;;;;;15.88;12.52;;;7.10;99.90;;;;;;5082089;28;20226;-89
2023/12/18 06:57:34;;;;;;;19.88;12.50;;;7.10;99.90;;;;;;5082165;28;20643;-91
2023/12/18 07:00:01;;;;;;;17.02;12.00;;;6.90;1.00;;;;;;5082880;28;20206;-90
2023/12/18 07:02:28;;;;;;;15.40;10.50;;;;;;;;;;5082964;28;20285;-89
2023/12/18 07:04:55;;;;;;;14.95;10.85;;;;;;;;;;5083201;28;20233;-88
2023/12/18 07:07:22;;;;;;;12.48;10.75;;;7.10;99.90;;;;;;5085905;28;20236;-89
2023/12/18 07:09:50;;;;;;;16.63;10.93;;;7.10;99.90;;;;;;5083228;28;20262;-89
2023/12/18 07:12:17;;;;;;;16.63;11.55;;;;;;;;;;5083732;28;20207;-90
2023/12/18 07:14:46;;;;;;;14.30;11.65;;;7.10;99.90;;;;;;5084394;28;20250;-90
2023/12/18 07:17:12;;;;;;;14.50;11.63;;;6.90;99.90;;;;;;5095297;28;20241;-90
2023/12/18 07:19:40;;;;;;;20.55;11.68;;;7.10;99.90;;;;;;5097501;28;20260;-90
2023/12/18 07:22:07;;;;;;;15.47;12.03;;;7.10;99.90;;;;;;5100117;28;20208;-90
2023/12/18 07:24:34;;;;;;;16.67;10.20;;;;;;;;;;5100021;28;20441;-90
2023/12/18 07:27:02;;;;;;;15.88;11.20;;;;;;;;;;5090037;28;20476;-90
2023/12/18 07:29:30;;;;;;;13.93;10.35;;;6.90;99.90;;;;;;5082037;28;20198;-90
2023/12/18 07:31:58;;;;;;;19.15;11.50;;;7.20;99.90;;;;;;5081344;28;20307;-89
2023/12/18 07:34:25;;;;;;;16.55;12.10;;;7.10;99.90;;;;;;5082236;28;20222;-90
2023/12/18 07:36:52;;;;;;;15.13;10.52;;;7.10;99.90;;;;;;5082800;28;20286;-89
2023/12/18 07:39:19;;;;;;;13.23;10.80;;;7.10;99.90;;;;;;5090685;28;20241;-89
2023/12/18 07:41:46;;;;;;;15.52;12.07;;;7.20;99.90;;;;;;5089122;28;20230;-89
2023/12/18 07:44:13;;;;;;;13.57;10.45;;;7.30;99.90;;;;;;5080930;28;20305;-90
2023/12/18 07:46:40;;;;;;;13.85;10.23;;;7.20;99.90;;;;;;5080226;28;20207;-90
2023/12/18 07:49:08;;;;;;;13.63;10.80;;;7.30;99.90;;;;;;5081093;28;20208;-90
2023/12/18 07:51:36;;;;;;;19.00;11.13;;;;;;;;;;5080804;28;20314;-90
2023/12/18 07:54:03;;;;;;;13.20;11.02;;;7.20;99.90;;;;;;5080448;28;20857;-89
2023/12/18 07:56:30;;;;;;;13.30;10.27;;;;;;;;;;5080926;28;20294;-90
2023/12/18 07:58:57;;;;;;;15.13;10.57;;;7.10;99.90;;;;;;5095775;28;20210;-90
2023/12/18 08:01:24;;;;;;;16.42;11.18;;;7.20;99.90;;;;;;5081619;28;20289;-90
2023/12/18 08:03:51;;;;;;;15.18;11.38;;;;;;;;;;5081248;28;20233;-90
2023/12/18 08:06:19;;;;;;;16.50;11.80;;;7.20;99.90;;;;;;5080844;28;20198;-90
2023/12/18 08:08:47;;;;;;;15.23;10.52;;;;;;;;;;5084207;28;20234;-89
2023/12/18 08:11:14;;;;;;;14.43;11.05;;;;;;;;;;5080954;28;20315;-91
2023/12/18 08:13:42;;;;;;;17.02;9.85;;;7.20;99.90;;;;;;5083560;28;20309;-89
2023/12/18 08:16:09;;;;;;;17.90;11.13;;;;;;;;;;5081353;28;20206;-91
2023/12/18 08:18:36;;;;;;;16.95;10.57;;;7.10;99.90;;;;;;5085182;28;20213;-90
2023/12/18 08:21:04;;;;;;;12.88;11.15;;;7.30;99.90;;;;;;5081875;28;20226;-90
2023/12/18 08:23:32;;;;;;;13.52;10.68;;;7.30;99.90;;;;;;5081673;28;20198;-90
2023/12/18 08:25:59;;;;;;;19.35;12.65;;;;;;;;;;5080561;28;20203;-89
2023/12/18 08:28:26;;;;;;;13.57;11.68;;;;;;;;;;5080082;28;20206;-90
2023/12/18 08:30:54;;;;;;;14.73;11.18;;;;;;;;;;5079248;28;20238;-90
2023/12/18 08:33:20;;;;;;;15.85;10.75;;;7.40;90.90;;;;;;5079742;28;20202;-90
2023/12/18 08:35:47;;;;;;;16.00;11.00;;;7.50;82.50;;;;;;5091403;28;20190;-89
2023/12/18 08:38:17;;;;;;;12.95;10.85;;;7.20;99.90;;;;;;5087296;28;20199;-91
2023/12/18 08:40:47;;;;;;;19.73;10.45;;;10.10;3.80;;;;;;5085556;28;20556;-90
2023/12/18 08:43:14;;;;;;;15.70;11.10;;;;;;;;;;5087919;28;20643;-92
2023/12/18 08:45:42;;;;;;;15.38;9.55;;;;;;;;;;5087757;28;20475;-92
2023/12/18 08:48:09;;;;;;;18.23;11.40;;;;;;;;;;5085003;28;20198;-91
2023/12/18 08:50:37;;;;;;;14.07;9.30;;;;;;;;;;5089571;28;20226;-92
2023/12/18 08:53:04;;;;;;;16.17;10.60;;;7.60;99.90;;;;;;5099406;28;20265;-90
2023/12/18 08:55:32;;;;;;;15.48;10.00;;;7.10;99.90;;;;;;5099530;28;20496;-91
2023/12/18 08:58:01;;;;;;;18.65;11.00;;;7.40;77.90;;;;;;5084192;28;20301;-91
2023/12/18 09:00:29;;;;;;;19.10;11.05;;;7.40;99.90;;;;;;5081245;28;20276;-91
2023/12/18 09:02:58;;;;;;;12.68;10.10;;;;;;;;;;5081947;28;20638;-90
2023/12/18 09:05:25;;;;;;;13.52;9.65;;;;;;;;;;5081605;28;20221;-91
2023/12/18 09:08:03;;;;;;;10.57;9.57;;;;;;;;;;5081954;28;20202;-91
2023/12/18 09:10:32;;;;;;;11.27;8.27;;;;;;;;;;5097241;28;20213;-90
2023/12/18 09:13:00;;;;;;;14.60;9.40;;;;;;;;;;5091038;28;20496;-90
2023/12/18 09:15:31;;;;;;;10.10;8.77;;;7.50;90.20;;;;;;5081915;28;20539;-91
2023/12/18 09:18:03;;;;;;;12.75;10.55;;;7.60;1.00;;;;;;5082135;28;20412;-91
2023/12/18 09:20:33;;;;;;;14.20;10.07;;;7.60;1.00;;;;;;5081961;28;20252;-92
2023/12/18 09:23:00;;;;;;;15.63;9.75;;;;;;;;;;5082125;28;20418;-92
2023/12/18 09:25:27;;;;;;;12.70;9.23;;;;;;;;;;5082476;28;20651;-91
2023/12/18 09:27:58;;;;;;;11.32;9.40;;;7.20;99.90;;;;;;5081495;28;20199;-91
2023/12/18 09:30:25;;;;;;;11.55;10.10;;;;;;;;;;5090096;28;20222;-92
2023/12/18 09:32:56;;;;;;;11.77;10.03;;;7.40;99.90;;;;;;5087818;28;20209;-91
2023/12/18 09:35:24;;;;;;;13.65;10.15;;;;;;;;;;5095973;28;20456;-91
2023/12/18 09:37:51;;;;;;;13.48;9.68;;;;;;;;;;5096410;28;20186;-91
2023/12/18 09:40:18;;;;;;;17.05;10.18;;;;;;;;;;5098665;28;20209;-91
2023/12/18 09:42:53;;;;;;;15.25;9.95;;;7.70;1.00;;;;;;5098843;28;20214;-91
2023/12/18 09:45:27;;;;;;;14.37;9.33;;;7.80;1.00;;;;;;5098954;28;20197;-91
2023/12/18 09:47:55;;;;;;;20.42;15.85;;;7.80;1.00;;;;;;5096675;28;20429;-90
2023/12/18 09:50:23;;;;;;;13.03;9.27;;;;;;;;;;5095493;28;20214;-91
2023/12/18 09:53:00;;;;;;;14.40;11.18;;;7.80;1.00;;;;;;5093639;28;20434;-90
2023/12/18 09:55:27;;;;;;;12.98;9.30;;;;;;;;;;5095063;28;20186;-91
2023/12/18 09:58:00;;;;;;;15.13;10.40;;;7.60;1.00;;;;;;5090066;28;20206;-92
2023/12/18 10:00:27;;;;;;;16.13;9.57;;;;;;;;;;5093618;28;20452;-90
2023/12/18 10:02:57;;;;;;;14.17;10.77;;;7.50;1.00;;;;;;5098377;28;20213;-89
2023/12/18 10:05:25;;;;;;;14.73;11.50;;;;;;;;;;5098621;28;20379;-90
2023/12/18 10:07:53;;;;;;;12.07;9.98;;;8.00;19.70;;;;;;5098742;28;20171;-90
2023/12/18 10:10:21;;;;;;;14.37;11.17;;;;;;;;;;5093931;28;20218;-92
2023/12/18 10:12:48;;;;;;;16.40;11.70;;;7.60;1.00;;;;;;5092982;28;20443;-91
2023/12/18 10:15:16;;;;;;;15.20;11.93;;;;;;;;;;5091529;28;20476;-92
2023/12/18 10:17:43;;;;;;;13.40;10.40;;;7.70;1.00;;;;;;5087602;28;20214;-91
2023/12/18 10:20:15;;;;;;;15.60;10.53;;;7.60;1.00;;;;;;5095011;28;20483;-90
2023/12/18 10:22:57;;;;;;;13.43;9.40;;;7.90;1.00;;;;;;5088798;28;20472;-91
2023/12/18 10:25:25;;;;;;;13.87;10.63;;;;;;;;;;5090197;28;20476;-91
2023/12/18 10:27:57;;;;;;;13.17;9.73;;;7.60;1.00;;;;;;5088177;28;20448;-90
2023/12/18 10:30:29;;;;;;;18.17;12.13;;;7.60;1.00;;;;;;5088731;28;20492;-91
2023/12/18 10:33:11;;;;;;;13.25;11.30;;;7.60;1.00;;;;;;5086676;28;20428;-89
2023/12/18 10:35:40;;;;;;;16.03;11.10;;;7.50;1.00;;;;;;5083571;28;20309;-90
2023/12/18 10:38:09;;;;;;;15.63;10.02;;;7.60;1.00;;;;;;5083761;28;20427;-91
2023/12/18 10:40:36;;;;;;;15.48;10.43;;;;;;;;;;5084826;28;20763;-90
2023/12/18 10:43:20;;;;;;;14.18;10.48;;;7.70;25.50;;;;;;5084730;28;20314;-90
2023/12/18 10:45:52;;;;;;;13.90;10.97;;;7.70;1.00;;;;;;5083984;28;20194;-91
2023/12/18 10:48:28;;;;;;;18.25;12.07;;;7.70;1.00;;;;;;5086701;28;20457;-91
2023/12/18 10:51:00;;;;;;;13.40;10.17;;;7.70;1.00;;;;;;5092038;28;20218;-91
2023/12/18 10:53:39;;;;;;;13.57;10.90;;;7.70;1.00;;;;;;5089172;28;20819;-91
2023/12/18 10:56:12;;;;;;;16.10;11.70;;;7.70;1.00;;;;;;5087963;28;20226;-91
2023/12/18 10:58:44;;;;;;;12.07;9.55;;;7.80;1.00;;;;;;5087911;28;20431;-91
2023/12/18 11:01:24;;;;;;;11.53;9.80;;;7.80;1.00;;;;;;5087983;28;20226;-91
2023/12/18 11:03:58;;;;;;;14.10;11.30;;;7.70;1.00;;;;;;5085509;28;20444;-91
2023/12/18 11:06:29;;;;;;;13.60;11.10;;;7.70;1.00;;;;;;5089221;28;20186;-91
2023/12/18 11:08:57;;;;;;;21.80;12.40;;;;;;;;;;5097748;28;20425;-90
2023/12/18 11:11:29;;;;;;;16.55;11.93;;;7.80;1.00;;;;;;5089545;28;20458;-91
2023/12/18 11:14:11;;;;;;;15.98;11.38;;;7.70;1.00;;;;;;5085776;28;20724;-92
2023/12/18 11:16:58;;;;;;;12.98;10.68;;;7.70;1.00;;;;;;5083177;28;20198;-91
2023/12/18 11:19:39;;;;;;;12.83;10.97;;;7.70;1.00;;;;;;5083442;28;20206;-91
2023/12/18 11:22:10;;;;;;;19.00;12.17;;;7.70;1.00;;;;;;5088739;28;20479;-91
2023/12/18 11:24:46;;;;;;;15.10;11.43;;;7.70;1.00;;;;;;5092095;28;20412;-90
2023/12/18 11:27:20;;;;;;;15.97;11.90;;;7.70;1.00;;;;;;5091625;28;20413;-91
2023/12/18 11:30:05;;;;;;;17.10;12.30;;;7.60;99.90;;;;;;5091433;28;20451;-90
2023/12/18 11:32:53;;;;;;;12.87;11.37;;;7.70;99.90;;;;;;5092663;28;20448;-91
2023/12/18 11:35:34;;;;;;;15.10;11.33;;;7.60;1.00;;;;;;5084776;28;20992;-91
2023/12/18 11:38:22;;;;;;;17.57;11.37;;;7.60;99.90;;;;;;5084989;28;20449;-91
2023/12/18 11:41:00;;;;;;;16.15;11.32;;;7.60;1.00;;;;;;5082677;28;20791;-89
2023/12/18 11:43:38;;;;;;;20.77;11.82;;;7.60;1.00;;;;;;5082148;28;20202;-88
2023/12/18 11:46:30;;;;;;;15.90;12.40;;;7.60;99.90;;;;;;5082916;28;20266;-90
2023/12/18 12:03:55;;;;;;;21.60;13.87;;;7.80;99.90;;;;;;5096746;28;20472;-89
2023/12/18 12:09:53;;;;;;;17.73;12.13;;;7.80;99.90;;;;;;5087618;28;20425;-90
2023/12/18 12:13:14;;;;;;;18.80;10.93;;;7.80;99.90;;;;;;5091957;28;20595;-92
2023/12/18 12:19:40;;;;;;;22.57;11.87;;;8.00;99.90;;;;;;5027556;28;20483;-88
2023/12/18 12:22:17;;;;;;;17.57;11.27;;;8.20;99.90;;;;;;5039461;28;20441;-89
2023/12/18 12:28:40;;;;;;;14.93;10.47;;;8.20;99.90;;;;;;5039917;28;20545;-90
2023/12/18 12:31:30;;;;;;;15.70;11.47;;;8.20;85.70;;;;;;5066255;28;20807;-89
2023/12/18 12:37:41;;;;;;;15.20;10.20;;;8.10;99.90;;;;;;5018066;28;20410;-89
2023/12/18 12:40:11;;;;;;;15.00;10.97;;;8.20;99.90;;;;;;5084172;28;20468;-89
2023/12/18 12:42:42;;;;;;;15.57;10.97;;;;;;;;;;5099811;28;20421;-89
2023/12/18 12:45:11;;;;;;;14.33;11.53;;;8.20;99.90;;;;;;5098432;28;20416;-89
2023/12/18 12:47:39;;;;;;;12.17;10.70;;;8.10;99.90;;;;;;5090527;28;20438;-89
2023/12/18 12:50:15;;;;;;;14.50;11.27;;;8.10;99.90;;;;;;5090961;28;20468;-89
2023/12/18 12:52:51;;;;;;;17.10;11.30;;;5.80;99.90;;;;;;5089333;28;20432;-90
2023/12/18 12:55:36;;;;;;;14.90;11.13;;;8.00;99.90;;;;;;5088734;28;20446;-89
2023/12/18 12:58:09;;;;;;;19.60;12.00;;;8.00;99.90;;;;;;5094380;28;20407;-89
2023/12/18 13:00:38;;;;;;;13.80;11.53;;;;;;;;;;5096387;28;20479;-89
2023/12/18 13:09:40;;;;;;;17.07;11.53;;;7.90;99.90;;;;;;5080994;28;20442;-90
2023/12/18 13:12:08;;;;;;;15.73;11.57;;;;;;;;;;5086457;28;20447;-89
2023/12/18 13:14:36;;;;;;;16.33;11.60;;;;;;;;;;5094204;28;20429;-90
2023/12/18 13:17:05;;;;;;;16.90;11.20;;;7.90;99.90;;;;;;5089461;28;20457;-89
2023/12/18 13:19:36;;;;;;;16.57;11.80;;;7.90;99.90;;;;;;5086046;28;20961;-89
2023/12/18 13:22:05;;;;;;;16.77;11.03;;;6.60;99.90;;;;;;5084527;28;20457;-89
2023/12/18 13:24:38;;;;;;;13.47;11.30;;;7.90;99.90;;;;;;5082768;28;20498;-90
2023/12/18 13:27:07;;;;;;;18.37;11.80;;;;;;;;;;5082939;28;20448;-89
2023/12/18 13:29:35;;;;;;;15.83;10.10;;;;;;;;;;5082561;28;20541;-90
2023/12/18 13:32:07;;;;;;;18.53;10.80;;;;;;;;;;5087027;28;20431;-89
2023/12/18 13:34:34;;;;;;;13.00;10.43;;;;;;;;;;5090358;28;20524;-89
2023/12/18 13:37:03;;;;;;;13.70;10.50;;;7.90;99.90;;;;;;5093352;28;20550;-89
2023/12/18 13:39:30;;;;;;;20.83;11.23;;;;;;;;;;5090819;28;20441;-88
2023/12/18 13:42:05;;;;;;;15.60;9.87;;;8.00;99.90;;;;;;5082196;28;20533;-90
2023/12/18 13:44:36;;;;;;;13.50;10.40;;;;;;;;;;5082180;28;20433;-89
2023/12/18 13:47:07;;;;;;;12.27;9.30;;;;;;;;;;5080163;28;20767;-89
2023/12/18 13:49:39;;;;;;;11.43;10.23;;;8.00;99.90;;;;;;5088768;28;20388;-89
2023/12/18 13:52:07;;;;;;;12.47;9.00;;;;;;;;;;5097037;28;20452;-89